createdAt,value
2018-11-06T00:01:32.336Z,28.40
2018-11-06T00:05:11.934Z,24.73
2018-11-06T00:08:45.173Z,22.20
2018-11-06T00:12:18.424Z,28.83
2018-11-06T00:15:51.682Z,24.63
2018-11-06T00:19:24.945Z,24.93
2018-11-06T00:22:58.177Z,24.20
2018-11-06T00:26:31.427Z,24.50
2018-11-06T00:30:05.275Z,21.80
2018-11-06T00:33:38.504Z,21.17
2018-11-06T00:37:11.745Z,25.30
2018-11-06T00:40:44.996Z,25.77
2018-11-06T00:44:18.218Z,25.33
2018-11-06T00:47:51.460Z,23.83
2018-11-06T00:51:24.698Z,24.23
2018-11-06T00:54:57.940Z,25.77
2018-11-06T00:58:31.171Z,24.13
2018-11-06T01:02:04.421Z,21.33
2018-11-06T01:05:37.665Z,27.50
2018-11-06T01:09:12.308Z,23.93
2018-11-06T01:12:45.550Z,22.80
2018-11-06T01:16:18.809Z,23.73
2018-11-06T01:19:52.055Z,25.03
2018-11-06T01:23:25.289Z,22.40
2018-11-06T01:26:58.527Z,27.60
2018-11-06T01:30:31.777Z,23.27
2018-11-06T01:34:05.086Z,22.40
2018-11-06T01:37:38.339Z,25.87
2018-11-06T01:41:11.580Z,20.93
2018-11-06T01:44:44.815Z,20.40
2018-11-06T01:48:18.050Z,22.87
2018-11-06T01:51:51.323Z,22.20
2018-11-06T01:55:24.563Z,25.47
2018-11-06T01:58:57.814Z,23.67
2018-11-06T02:02:31.045Z,24.50
2018-11-06T02:06:04.496Z,26.03
2018-11-06T02:09:37.760Z,22.07
2018-11-06T02:13:11.020Z,23.37
2018-11-06T02:16:44.265Z,25.00
2018-11-06T02:20:17.547Z,26.20
2018-11-06T02:23:50.784Z,26.37
2018-11-06T02:27:24.037Z,25.20
2018-11-06T02:30:57.277Z,27.10
2018-11-06T02:34:30.537Z,30.37
2018-11-06T02:38:03.779Z,23.93
2018-11-06T02:41:37.035Z,29.87
2018-11-06T02:45:11.116Z,30.37
2018-11-06T02:48:44.367Z,32.57
2018-11-06T02:52:17.605Z,26.13
2018-11-06T02:55:51.533Z,30.93
2018-11-06T02:59:24.953Z,29.03
2018-11-06T03:02:58.219Z,26.67
2018-11-06T03:06:31.450Z,24.77
2018-11-06T03:10:04.808Z,29.50
2018-11-06T03:13:38.028Z,30.10
2018-11-06T03:17:11.280Z,27.23
2018-11-06T03:20:44.504Z,27.27
2018-11-06T03:24:17.748Z,24.20
2018-11-06T03:27:50.997Z,31.07
2018-11-06T03:31:24.241Z,24.90
2018-11-06T03:34:57.601Z,20.80
2018-11-06T03:38:30.845Z,23.10
2018-11-06T03:42:04.112Z,25.67
2018-11-06T03:45:37.346Z,24.10
2018-11-06T03:49:10.593Z,27.00
2018-11-06T03:52:43.838Z,23.10
2018-11-06T03:56:17.081Z,23.77
2018-11-06T03:59:50.306Z,23.37
2018-11-06T04:03:23.555Z,25.87
2018-11-06T04:06:56.805Z,30.30
2018-11-06T04:10:30.038Z,26.47
2018-11-06T04:14:03.312Z,29.47
2018-11-06T04:17:36.544Z,24.80
2018-11-06T04:21:09.785Z,22.60
2018-11-06T04:24:43.020Z,23.13
2018-11-06T04:28:16.260Z,19.63
2018-11-06T04:31:49.493Z,21.13
2018-11-06T04:35:22.754Z,21.00
2018-11-06T04:38:56.245Z,21.40
2018-11-06T04:42:29.522Z,19.03
2018-11-06T04:46:02.745Z,20.30
2018-11-06T04:49:36.010Z,22.47
2018-11-06T04:53:09.242Z,21.87
2018-11-06T04:56:42.485Z,22.10
2018-11-06T05:00:15.816Z,25.83
2018-11-06T05:03:49.065Z,22.93
2018-11-06T05:07:22.293Z,19.97
2018-11-06T05:10:55.559Z,19.57
2018-11-06T05:14:28.791Z,18.77
2018-11-06T05:18:02.041Z,25.60
2018-11-06T05:21:35.296Z,16.00
2018-11-06T05:25:08.979Z,17.77
2018-11-06T05:28:42.220Z,19.70
2018-11-06T05:32:15.480Z,19.47
2018-11-06T05:35:48.704Z,18.27
2018-11-06T05:39:21.977Z,18.10
2018-11-06T05:42:55.389Z,19.00
2018-11-06T05:46:28.702Z,18.67
2018-11-06T05:50:01.967Z,16.40
2018-11-06T05:53:35.739Z,17.80
2018-11-06T05:57:09.065Z,19.27
2018-11-06T06:00:42.360Z,18.17
2018-11-06T06:04:15.536Z,16.63
2018-11-06T06:07:48.818Z,19.77
2018-11-06T06:11:22.142Z,18.70
2018-11-06T06:14:55.388Z,19.70
2018-11-06T06:18:28.642Z,18.47
2018-11-06T06:22:01.888Z,21.37
2018-11-06T06:25:35.111Z,18.67
2018-11-06T06:29:08.518Z,19.20
2018-11-06T06:32:41.935Z,19.63
2018-11-06T06:36:15.306Z,19.60
2018-11-06T06:39:49.417Z,24.17
2018-11-06T06:43:22.861Z,23.07
2018-11-06T06:46:56.102Z,22.60
2018-11-06T06:50:29.358Z,25.00
2018-11-06T06:54:02.608Z,33.20
2018-11-06T06:57:36.343Z,27.93
2018-11-06T07:01:09.568Z,19.77
2018-11-06T07:04:42.796Z,28.23
2018-11-06T07:08:16.038Z,26.33
2018-11-06T07:11:49.262Z,23.03
2018-11-06T07:15:23.164Z,21.90
2018-11-06T07:18:56.400Z,21.27
2018-11-06T07:22:29.684Z,21.97
2018-11-06T07:26:02.957Z,22.77
2018-11-06T07:29:36.213Z,24.47
2018-11-06T07:33:09.457Z,23.03
2018-11-06T07:36:42.690Z,26.70
2018-11-06T07:40:17.290Z,25.00
2018-11-06T07:43:50.529Z,23.43
2018-11-06T07:47:23.773Z,26.90
2018-11-06T07:50:57.021Z,21.20
2018-11-06T07:54:30.261Z,27.27
2018-11-06T07:58:03.581Z,20.23
2018-11-06T08:01:36.845Z,23.73
2018-11-06T08:05:10.264Z,20.97
2018-11-06T08:08:43.525Z,22.13
2018-11-06T08:12:16.769Z,22.97
2018-11-06T08:15:50.025Z,21.50
2018-11-06T08:19:23.266Z,21.37
2018-11-06T08:22:56.528Z,24.23
2018-11-06T08:26:29.968Z,21.37
2018-11-06T08:30:03.263Z,22.73
2018-11-06T08:33:36.513Z,26.57
2018-11-06T08:37:09.827Z,21.90
2018-11-06T08:40:43.033Z,21.87
2018-11-06T08:44:16.318Z,22.73
2018-11-06T08:47:49.558Z,21.03
2018-11-06T08:51:22.817Z,20.30
2018-11-06T08:54:56.056Z,18.50
2018-11-06T08:58:29.361Z,20.97
2018-11-06T09:02:02.576Z,16.83
2018-11-06T09:05:35.830Z,18.50
2018-11-06T09:09:10.369Z,17.50
2018-11-06T09:12:43.621Z,16.83
2018-11-06T09:16:16.936Z,14.20
2018-11-06T09:19:50.201Z,14.97
2018-11-06T09:23:23.446Z,15.13
2018-11-06T09:26:56.709Z,13.87
2018-11-06T09:30:29.953Z,16.33
2018-11-06T09:34:03.210Z,15.80
2018-11-06T09:37:36.453Z,11.63
2018-11-06T09:41:09.751Z,14.67
2018-11-06T09:44:42.961Z,12.27
2018-11-06T09:48:16.217Z,11.90
2018-11-06T09:51:49.511Z,11.50
2018-11-06T09:55:22.729Z,10.80
2018-11-06T09:58:55.992Z,11.07
2018-11-06T10:02:29.224Z,11.43
2018-11-06T10:06:02.565Z,11.23
2018-11-06T10:09:35.738Z,10.80
2018-11-06T10:13:08.992Z,11.10
2018-11-06T10:16:42.218Z,10.47
2018-11-06T10:20:16.631Z,10.23
2018-11-06T10:23:49.868Z,10.57
2018-11-06T10:27:23.118Z,10.60
2018-11-06T10:30:56.419Z,10.63
2018-11-06T10:34:29.620Z,11.43
2018-11-06T10:38:02.912Z,11.10
2018-11-06T10:41:36.232Z,13.60
2018-11-06T10:45:09.633Z,10.00
2018-11-06T10:48:42.890Z,9.70
2018-11-06T10:52:16.393Z,9.60
2018-11-06T10:55:49.633Z,8.90
2018-11-06T10:59:22.873Z,9.63
2018-11-06T11:03:01.414Z,11.37
2018-11-06T11:06:34.660Z,9.40
2018-11-06T11:10:07.909Z,8.73
2018-11-06T11:13:41.133Z,8.30
2018-11-06T11:17:14.368Z,8.40
2018-11-06T11:20:47.606Z,8.37
2018-11-06T11:24:20.859Z,7.50
2018-11-06T11:27:54.085Z,6.80
2018-11-06T11:31:27.391Z,7.20
2018-11-06T11:35:00.599Z,6.77
2018-11-06T11:38:33.828Z,6.40
2018-11-06T11:42:07.062Z,5.77
2018-11-06T11:45:40.291Z,6.80
2018-11-06T11:49:13.536Z,11.70
2018-11-06T11:52:46.769Z,8.07
2018-11-06T11:56:20.014Z,6.23
2018-11-06T11:59:53.299Z,5.57
2018-11-06T12:03:26.509Z,6.97
2018-11-06T12:06:59.745Z,6.37
2018-11-06T12:10:32.988Z,5.87
2018-11-06T12:14:06.394Z,6.33
2018-11-06T12:17:39.669Z,7.87
2018-11-06T12:21:12.921Z,6.53
2018-11-06T12:24:46.268Z,6.80
2018-11-06T12:28:19.397Z,8.63
2018-11-06T12:31:52.643Z,5.90
2018-11-06T12:35:25.889Z,6.80
2018-11-06T12:38:59.140Z,6.20
2018-11-06T12:42:32.361Z,7.87
2018-11-06T12:46:05.920Z,6.47
2018-11-06T12:49:39.166Z,5.90
2018-11-06T12:53:12.389Z,5.93
2018-11-06T12:56:45.693Z,5.90
2018-11-06T13:00:19.886Z,5.00
2018-11-06T13:03:53.132Z,7.50
2018-11-06T13:07:26.384Z,6.87
2018-11-06T13:10:59.628Z,8.60
2018-11-06T13:14:32.885Z,6.80
2018-11-06T13:18:06.126Z,7.30
2018-11-06T13:21:39.369Z,5.90
2018-11-06T13:25:12.640Z,5.53
2018-11-06T13:28:45.901Z,6.70
2018-11-06T13:32:19.158Z,7.17
2018-11-06T13:35:52.392Z,6.40
2018-11-06T13:39:25.633Z,5.87
2018-11-06T13:42:58.948Z,6.63
2018-11-06T13:46:32.116Z,8.57
2018-11-06T13:50:05.578Z,5.53
2018-11-06T13:53:38.812Z,5.53
2018-11-06T13:57:12.081Z,7.93
2018-11-06T14:00:45.327Z,6.43
2018-11-06T14:04:18.616Z,7.63
2018-11-06T14:07:51.858Z,10.67
2018-11-06T14:11:25.128Z,9.97
2018-11-06T14:14:58.368Z,8.63
2018-11-06T14:18:31.600Z,10.37
2018-11-06T14:22:05.095Z,9.07
2018-11-06T14:25:38.361Z,9.30
2018-11-06T14:29:11.589Z,6.70
2018-11-06T14:32:45.208Z,8.03
2018-11-06T14:36:18.453Z,8.63
2018-11-06T14:39:51.710Z,8.67
2018-11-06T14:43:24.949Z,8.83
2018-11-06T14:46:58.191Z,6.77
2018-11-06T14:50:31.442Z,9.13
2018-11-06T14:54:04.819Z,8.10
2018-11-06T14:57:38.081Z,8.27
2018-11-06T15:01:11.328Z,8.30
2018-11-06T15:04:44.577Z,6.97
2018-11-06T15:08:17.824Z,6.17
2018-11-06T15:11:51.073Z,6.60
2018-11-06T15:15:24.309Z,6.83
2018-11-06T15:18:57.553Z,10.93
2018-11-06T15:22:30.809Z,11.77
2018-11-06T15:26:04.044Z,12.43
2018-11-06T15:29:37.301Z,12.57
2018-11-06T15:33:10.558Z,14.30
2018-11-06T15:36:43.809Z,17.50
2018-11-06T15:40:18.348Z,14.90
2018-11-06T15:43:51.581Z,12.17
2018-11-06T15:47:24.869Z,12.77
2018-11-06T15:50:58.101Z,13.37
2018-11-06T15:54:31.367Z,15.53
2018-11-06T15:58:04.676Z,15.00
2018-11-06T16:01:37.949Z,14.30
2018-11-06T16:05:11.187Z,14.10
2018-11-06T16:08:44.457Z,14.47
2018-11-06T16:12:17.775Z,16.70
2018-11-06T16:15:51.025Z,16.63
2018-11-06T16:19:24.454Z,17.53
2018-11-06T16:22:57.696Z,19.70
2018-11-06T16:26:30.953Z,17.80
2018-11-06T16:30:04.485Z,18.90
2018-11-06T16:33:37.729Z,23.03
2018-11-06T16:37:10.974Z,22.27
2018-11-06T16:40:44.215Z,21.40
2018-11-06T16:44:17.471Z,21.00
2018-11-06T16:47:51.585Z,21.17
2018-11-06T16:51:24.813Z,23.07
2018-11-06T16:54:58.115Z,23.23
2018-11-06T16:58:31.357Z,20.67
2018-11-06T17:02:04.864Z,24.00
2018-11-06T17:05:38.118Z,23.40
2018-11-06T17:09:11.349Z,23.33
2018-11-06T17:12:44.612Z,23.10
2018-11-06T17:16:17.882Z,20.40
2018-11-06T17:19:51.141Z,24.73
2018-11-06T17:23:24.394Z,26.43
2018-11-06T17:26:57.629Z,26.17
2018-11-06T17:30:30.898Z,26.57
2018-11-06T17:34:04.170Z,25.13
2018-11-06T17:37:38.182Z,26.40
2018-11-06T17:41:11.446Z,27.97
2018-11-06T17:44:44.688Z,29.23
2018-11-06T17:48:17.936Z,27.27
2018-11-06T17:51:51.178Z,29.70
2018-11-06T17:55:24.469Z,26.70
2018-11-06T17:58:57.689Z,26.63
2018-11-06T18:02:30.936Z,26.40
2018-11-06T18:06:04.214Z,31.77
2018-11-06T18:09:37.485Z,27.73
2018-11-06T18:13:10.731Z,29.57
2018-11-06T18:16:43.992Z,29.27
2018-11-06T18:20:17.224Z,28.53
2018-11-06T18:23:50.490Z,33.60
2018-11-06T18:27:23.724Z,28.53
2018-11-06T18:30:56.994Z,31.63
2018-11-06T18:34:30.226Z,28.23
2018-11-06T18:38:03.601Z,31.43
2018-11-06T18:41:36.850Z,32.90
2018-11-06T18:45:10.729Z,25.70
2018-11-06T18:48:44.014Z,31.33
2018-11-06T18:52:17.646Z,30.13
2018-11-06T18:55:50.898Z,31.47
2018-11-06T18:59:24.212Z,34.77
2018-11-06T19:02:57.433Z,33.97
2018-11-06T19:06:30.693Z,36.70
2018-11-06T19:10:04.008Z,31.93
2018-11-06T19:13:37.266Z,32.83
2018-11-06T19:17:10.492Z,29.27
2018-11-06T19:20:43.744Z,31.70
2018-11-06T19:24:16.980Z,32.47
2018-11-06T19:27:50.236Z,32.30
2018-11-06T19:31:23.485Z,33.17
2018-11-06T19:34:57.591Z,32.17
2018-11-06T19:38:30.862Z,31.00
2018-11-06T19:42:04.174Z,36.03
2018-11-06T19:45:37.424Z,34.17
2018-11-06T19:49:10.662Z,34.60
2018-11-06T19:52:43.930Z,33.90
2018-11-06T19:56:17.181Z,34.50
2018-11-06T19:59:50.428Z,35.90
2018-11-06T20:03:23.698Z,30.33
2018-11-06T20:06:56.988Z,37.43
2018-11-06T20:10:30.253Z,37.33
2018-11-06T20:14:03.687Z,35.87
2018-11-06T20:17:36.937Z,35.80
2018-11-06T20:21:10.190Z,37.70
2018-11-06T20:24:43.448Z,32.10
2018-11-06T20:28:16.693Z,31.83
2018-11-06T20:31:49.969Z,33.47
2018-11-06T20:35:23.283Z,40.37
2018-11-06T20:38:56.497Z,41.57
2018-11-06T20:42:29.794Z,33.57
2018-11-06T20:46:03.033Z,31.93
2018-11-06T20:49:36.276Z,40.33
2018-11-06T20:53:09.583Z,35.23
2018-11-06T20:56:42.781Z,36.03
2018-11-06T21:00:21.196Z,35.03
2018-11-06T21:03:54.461Z,38.40
2018-11-06T21:07:27.694Z,32.70
2018-11-06T21:11:01.045Z,37.77
2018-11-06T21:14:34.290Z,40.53
2018-11-06T21:18:08.093Z,39.27
2018-11-06T21:21:41.279Z,33.57
2018-11-06T21:25:14.617Z,33.20
2018-11-06T21:28:47.848Z,29.30
2018-11-06T21:32:21.141Z,41.17
2018-11-06T21:35:54.418Z,40.00
2018-11-06T21:39:27.713Z,40.20
2018-11-06T21:43:01.598Z,34.23
2018-11-06T21:46:35.047Z,38.90
2018-11-06T21:50:10.172Z,38.47
2018-11-06T21:53:43.906Z,36.87
2018-11-06T21:57:18.817Z,39.83
2018-11-06T22:00:52.377Z,32.20
2018-11-06T22:04:25.572Z,32.30
2018-11-06T22:07:59.025Z,27.30
2018-11-06T22:11:32.257Z,33.33
2018-11-06T22:15:06.798Z,31.40
2018-11-06T22:18:40.030Z,30.50
2018-11-06T22:22:13.351Z,27.30
2018-11-06T22:25:47.112Z,31.17
2018-11-06T22:29:20.607Z,27.70
2018-11-06T22:32:53.858Z,35.07
2018-11-06T22:36:27.104Z,30.93
2018-11-06T22:40:00.393Z,29.40
2018-11-06T22:43:33.660Z,27.53
2018-11-06T22:47:06.916Z,29.17
2018-11-06T22:50:40.172Z,28.13
2018-11-06T22:54:13.898Z,30.40
2018-11-06T22:57:47.170Z,33.60
2018-11-06T23:01:25.177Z,31.33
2018-11-06T23:04:58.436Z,30.47
2018-11-06T23:08:31.729Z,30.23
2018-11-06T23:12:05.058Z,27.27
2018-11-06T23:15:38.281Z,28.10
2018-11-06T23:19:11.701Z,27.23
2018-11-06T23:22:44.931Z,32.07
2018-11-06T23:26:18.187Z,29.37
2018-11-06T23:29:51.426Z,28.30
2018-11-06T23:33:24.828Z,28.07
2018-11-06T23:36:58.056Z,27.53
2018-11-06T23:40:31.309Z,29.10
2018-11-06T23:44:04.797Z,28.33
2018-11-06T23:47:38.046Z,25.83
2018-11-06T23:51:11.289Z,30.70
2018-11-06T23:54:44.548Z,27.50
2018-11-06T23:58:17.778Z,25.97
